Time;durP1;ratioP1;P1;durP2;ratioP2;P2;SDS_P1;SDS_P2;PMS_P1;PMS_P2;Temp;Humidity;BMP_temperature;BMP_pressure;BME280_temperature;BME280_humidity;BME280_pressure;Samples;Min_cycle;Max_cycle;Signal;HPM_P1;HPM_P2
2021/09/20 00:02:06;;;;;;;0.30;0.10;;;;;;;10.05;77.72;98619.52;1835216;76;20882;-53
2021/09/20 00:04:32;;;;;;;0.13;0.10;;;;;;;10.04;77.78;98622.69;1834996;76;20914;-54
2021/09/20 00:07:00;;;;;;;0.00;0.00;;;;;;;10.04;77.80;98620.00;1834197;76;20904;-54
2021/09/20 00:09:26;;;;;;;0.10;0.10;;;;;;;10.02;77.84;98611.20;1830341;76;20905;-53
2021/09/20 00:11:54;;;;;;;1.07;0.10;;;;;;;10.01;77.88;98622.91;1834128;75;20847;-53
2021/09/20 00:14:21;;;;;;;0.30;0.10;;;;;;;10.02;77.98;98615.70;1835044;76;20894;-53
2021/09/20 00:16:49;;;;;;;0.00;0.00;;;;;;;10.06;77.99;98619.91;1838126;75;20914;-53
2021/09/20 00:19:17;;;;;;;0.15;0.13;;;;;;;10.06;77.92;98608.67;1832017;77;20906;-54
2021/09/20 00:21:43;;;;;;;0.10;0.10;;;;;;;10.07;77.84;98611.75;1771570;78;20981;-53
2021/09/20 00:24:09;;;;;;;0.17;0.10;;;;;;;10.04;77.76;98611.07;1799872;77;21128;-54
2021/09/20 00:26:35;;;;;;;0.10;0.10;;;;;;;10.02;77.79;98615.70;1778260;78;20938;-52
2021/09/20 00:29:03;;;;;;;0.30;0.10;;;;;;;10.01;77.81;98605.91;1795023;78;21154;-53
2021/09/20 00:31:31;;;;;;;0.30;0.10;;;;;;;10.01;77.73;98609.47;1763520;79;21109;-53
2021/09/20 00:33:57;;;;;;;0.10;0.10;;;;;;;9.98;77.72;98610.12;1762525;79;21111;-53
2021/09/20 00:36:23;;;;;;;0.40;0.10;;;;;;;9.98;77.82;98611.47;1774398;78;22799;-52
2021/09/20 00:38:51;;;;;;;0.10;0.10;;;;;;;9.99;77.90;98605.14;1797496;78;21062;-52
2021/09/20 00:41:18;;;;;;;0.20;0.10;;;;;;;9.99;77.83;98603.31;1762068;79;21042;-53
2021/09/20 00:43:46;;;;;;;0.10;0.00;;;;;;;9.97;77.75;98599.85;1769403;78;21314;-53
2021/09/20 00:46:13;;;;;;;0.10;0.10;;;;;;;9.97;77.76;98601.67;1796256;78;22611;-53
2021/09/20 00:48:41;;;;;;;0.10;0.10;;;;;;;9.98;77.74;98600.72;1750648;79;20969;-52
2021/09/20 00:51:07;;;;;;;0.00;0.00;;;;;;;9.98;77.78;98598.89;1775422;78;21369;-53
2021/09/20 00:53:34;;;;;;;0.10;0.08;;;;;;;9.98;77.80;98604.27;1770753;78;21021;-53
2021/09/20 00:56:01;;;;;;;0.10;0.10;;;;;;;9.99;77.80;98601.10;1771783;78;22250;-52
2021/09/20 00:58:28;;;;;;;1.17;0.20;;;;;;;10.00;77.76;98601.48;1795855;78;21524;-53
2021/09/20 01:00:54;;;;;;;0.53;0.10;;;;;;;9.97;77.75;98605.23;1754887;79;21361;-52
2021/09/20 01:03:20;;;;;;;0.30;0.10;;;;;;;9.97;77.81;98603.02;1735252;78;21081;-52
2021/09/20 01:05:49;;;;;;;1.37;0.00;;;;;;;9.97;77.81;98594.95;1770588;78;21042;-53
2021/09/20 01:08:15;;;;;;;0.17;0.10;;;;;;;9.97;77.77;98595.82;1764526;79;21050;-52
2021/09/20 01:10:43;;;;;;;0.10;0.10;;;;;;;9.97;77.78;98596.30;1765070;79;21074;-52
2021/09/20 01:13:10;;;;;;;0.10;0.10;;;;;;;9.98;77.93;98594.00;1777749;78;21164;-53
2021/09/20 01:15:37;;;;;;;0.90;0.10;;;;;;;9.98;77.90;98596.69;1774236;79;20997;-52
2021/09/20 01:18:03;;;;;;;0.55;0.10;;;;;;;9.98;77.92;98591.31;1770852;78;21127;-53
2021/09/20 01:20:31;;;;;;;0.08;0.03;;;;;;;9.96;77.87;98590.53;1794309;78;21030;-52
2021/09/20 01:23:04;;;;;;;0.25;0.10;;;;;;;9.91;77.93;98588.16;1756199;79;21104;-53
2021/09/20 01:25:31;;;;;;;0.37;0.10;;;;;;;9.88;78.02;98601.30;1765093;79;21129;-53
2021/09/20 01:27:57;;;;;;;0.08;0.08;;;;;;;9.88;78.07;98596.41;1770317;79;21056;-53
2021/09/20 01:30:24;;;;;;;0.42;0.10;;;;;;;9.87;78.21;98589.30;1796438;78;21049;-54
2021/09/20 01:32:50;;;;;;;0.10;0.10;;;;;;;9.88;78.25;98594.58;1792826;78;21739;-53
2021/09/20 01:35:18;;;;;;;4.35;0.90;;;;;;;9.92;78.30;98605.16;1800197;78;21056;-53
2021/09/20 01:37:44;;;;;;;1.00;0.10;;;;;;;9.92;78.28;98591.23;1802145;78;21113;-53
2021/09/20 01:40:11;;;;;;;0.20;0.10;;;;;;;9.95;78.30;98592.88;1776800;78;21240;-53
2021/09/20 01:42:38;;;;;;;0.20;0.10;;;;;;;9.94;78.32;98600.07;1767647;80;21165;-52
2021/09/20 01:45:06;;;;;;;0.05;0.05;;;;;;;9.93;78.24;98592.09;1777319;78;21135;-52
2021/09/20 01:47:32;;;;;;;0.20;0.10;;;;;;;9.89;78.26;98600.83;1783143;78;21052;-51
2021/09/20 01:49:59;;;;;;;0.20;0.00;;;;;;;9.85;78.33;98588.56;1767093;80;21166;-53
2021/09/20 01:52:26;;;;;;;0.13;0.10;;;;;;;9.83;78.31;98587.78;1785056;78;21016;-52
2021/09/20 01:54:54;;;;;;;0.10;0.03;;;;;;;9.81;78.45;98594.59;1770346;79;21080;-53
2021/09/20 01:57:23;;;;;;;0.10;0.00;;;;;;;9.84;78.58;98598.92;1783458;78;21044;-53
2021/09/20 01:59:50;;;;;;;0.10;0.10;;;;;;;9.85;78.56;98597.48;1779983;79;21052;-53
2021/09/20 02:02:17;;;;;;;0.10;0.10;;;;;;;9.85;78.64;98595.28;1780774;78;21462;-53
2021/09/20 02:04:45;;;;;;;0.40;0.10;;;;;;;9.86;78.61;98587.12;1778517;79;21408;-52
2021/09/20 02:07:11;;;;;;;0.23;0.10;;;;;;;9.84;78.61;98597.09;1777259;79;21632;-53
2021/09/20 02:09:37;;;;;;;0.25;0.05;;;;;;;9.83;78.63;98600.74;1784635;79;21404;-53
2021/09/20 02:12:04;;;;;;;0.20;0.00;;;;;;;9.82;78.61;98594.98;1780263;79;21590;-51
2021/09/20 02:14:32;;;;;;;3.55;0.10;;;;;;;9.81;78.75;98585.66;1779148;79;21029;-52
2021/09/20 02:17:00;;;;;;;0.30;0.10;;;;;;;9.82;78.86;98589.61;1781964;78;21073;-54
2021/09/20 02:19:26;;;;;;;0.10;0.10;;;;;;;9.83;78.93;98596.71;1782914;79;21080;-53
2021/09/20 02:21:52;;;;;;;0.90;0.10;;;;;;;9.84;79.02;98589.52;1774943;79;21167;-53
2021/09/20 02:24:19;;;;;;;0.10;0.10;;;;;;;9.83;79.10;98583.27;1781138;78;21078;-51
2021/09/20 02:26:45;;;;;;;0.10;0.10;;;;;;;9.84;79.13;98598.44;1777505;79;21119;-53
2021/09/20 02:29:12;;;;;;;0.10;0.10;;;;;;;9.81;79.12;98592.39;1776626;78;21278;-53
2021/09/20 02:31:38;;;;;;;0.30;0.10;;;;;;;9.77;79.15;98593.55;1764263;79;21156;-52
2021/09/20 02:34:05;;;;;;;0.62;0.10;;;;;;;9.74;79.24;98590.58;1766085;79;21061;-53
2021/09/20 02:36:32;;;;;;;0.10;0.10;;;;;;;9.72;79.39;98588.94;1771896;79;20922;-53
2021/09/20 02:38:58;;;;;;;0.30;0.10;;;;;;;9.72;79.47;98588.94;1773002;79;21095;-52
2021/09/20 02:41:24;;;;;;;0.17;0.05;;;;;;;9.73;79.58;98590.19;1768659;79;20974;-53
2021/09/20 02:43:52;;;;;;;0.20;0.10;;;;;;;9.76;79.59;98590.00;1772105;78;20957;-52
2021/09/20 02:46:19;;;;;;;0.47;0.10;;;;;;;9.77;79.62;98589.52;1771767;79;20954;-53
2021/09/20 02:48:47;;;;;;;0.10;0.08;;;;;;;9.76;79.69;98598.06;1773777;79;21005;-53
2021/09/20 02:51:14;;;;;;;0.82;0.10;;;;;;;9.77;79.78;98597.11;1775350;79;21028;-53
2021/09/20 02:53:42;;;;;;;0.13;0.00;;;;;;;9.77;79.77;98585.50;1773995;79;20887;-53
2021/09/20 02:56:08;;;;;;;0.62;0.15;;;;;;;9.75;79.76;98595.47;1771809;79;20922;-52
2021/09/20 02:58:35;;;;;;;0.40;0.10;;;;;;;9.73;79.83;98589.32;1770832;79;21413;-53
2021/09/20 03:01:01;;;;;;;1.65;0.10;;;;;;;9.71;79.92;98585.38;1769483;79;20965;-52
2021/09/20 03:03:27;;;;;;;0.10;0.10;;;;;;;9.72;80.02;98586.25;1772598;79;21037;-53
2021/09/20 03:05:53;;;;;;;0.35;0.10;;;;;;;9.72;80.11;98585.77;1770636;79;20859;-53
2021/09/20 03:08:20;;;;;;;0.20;0.10;;;;;;;9.74;80.20;98591.05;1771282;79;20987;-53
2021/09/20 03:10:46;;;;;;;0.20;0.10;;;;;;;9.73;80.03;98586.63;1768727;79;21441;-51
2021/09/20 03:13:13;;;;;;;0.10;0.10;;;;;;;9.72;80.19;98583.56;1767624;79;21546;-53
2021/09/20 03:15:39;;;;;;;0.10;0.10;;;;;;;9.71;80.21;98584.04;1765618;79;21128;-52
2021/09/20 03:18:05;;;;;;;0.20;0.10;;;;;;;9.69;80.21;98583.30;1771376;79;21632;-53
2021/09/20 03:20:33;;;;;;;0.15;0.10;;;;;;;9.69;80.26;98590.02;1770771;79;21041;-53
2021/09/20 03:23:01;;;;;;;0.40;0.10;;;;;;;9.70;80.36;98591.71;1768785;79;21073;-53
2021/09/20 03:25:28;;;;;;;0.20;0.08;;;;;;;9.72;80.43;98588.94;1767139;79;21063;-53
2021/09/20 03:27:55;;;;;;;0.10;0.10;;;;;;;9.73;80.46;98595.56;1768164;79;21148;-52
2021/09/20 03:30:21;;;;;;;0.10;0.10;;;;;;;9.75;80.46;98594.99;1768545;79;21080;-54
2021/09/20 03:32:48;;;;;;;1.67;0.10;;;;;;;9.77;80.50;98583.67;1766926;79;20989;-53
2021/09/20 03:35:15;;;;;;;0.28;0.20;;;;;;;9.79;80.45;98592.48;1766331;79;21215;-52
2021/09/20 03:37:43;;;;;;;0.10;0.10;;;;;;;9.77;80.40;98598.45;1772681;79;21499;-53
2021/09/20 03:40:13;;;;;;;0.10;0.10;;;;;;;9.74;80.37;98591.92;1773910;79;20934;-53
2021/09/20 03:42:39;;;;;;;0.50;0.10;;;;;;;9.73;80.38;98599.59;1773095;79;20985;-53
2021/09/20 03:45:07;;;;;;;0.13;0.10;;;;;;;9.72;80.48;98598.34;1770511;79;21127;-53
2021/09/20 03:47:33;;;;;;;0.45;0.20;;;;;;;9.71;80.50;98608.22;1766680;79;21382;-54
2021/09/20 03:49:59;;;;;;;1.47;0.10;;;;;;;9.73;80.58;98606.31;1767181;79;21077;-54
2021/09/20 03:52:26;;;;;;;0.10;0.10;;;;;;;9.76;80.59;98609.30;1767995;79;21323;-53
2021/09/20 03:54:52;;;;;;;0.93;0.10;;;;;;;9.78;80.67;98616.27;1774420;79;21408;-52
2021/09/20 03:57:19;;;;;;;0.75;0.20;;;;;;;9.80;80.68;98609.47;1770946;79;21477;-53
2021/09/20 03:59:45;;;;;;;1.15;0.10;;;;;;;9.81;80.69;98613.88;1765287;79;21984;-53
2021/09/20 04:02:12;;;;;;;0.10;0.10;;;;;;;9.82;80.67;98619.65;1768232;79;21654;-54
2021/09/20 04:04:38;;;;;;;0.70;0.10;;;;;;;9.80;80.63;98614.36;1794631;78;21518;-53
2021/09/20 04:07:06;;;;;;;0.10;0.10;;;;;;;9.80;80.64;98615.70;1797015;78;21029;-53
2021/09/20 04:09:33;;;;;;;0.62;0.20;;;;;;;9.77;80.61;98618.61;1772674;79;21574;-52
2021/09/20 04:12:01;;;;;;;0.15;0.10;;;;;;;9.76;80.68;98623.59;1774735;79;22478;-52
2021/09/20 04:14:27;;;;;;;0.20;0.10;;;;;;;9.76;80.71;98630.31;1757441;79;21046;-54
2021/09/20 04:16:55;;;;;;;0.40;0.10;;;;;;;9.78;80.69;98633.74;1777584;79;21045;-54
2021/09/20 04:19:22;;;;;;;0.30;0.10;;;;;;;9.76;80.69;98635.69;1775230;79;21170;-52
2021/09/20 04:21:49;;;;;;;0.10;0.10;;;;;;;9.80;80.71;98640.38;1777128;79;21520;-54
2021/09/20 04:24:17;;;;;;;1.07;0.20;;;;;;;9.81;80.70;98642.11;1774967;78;21299;-54
2021/09/20 04:26:45;;;;;;;0.10;0.10;;;;;;;9.82;80.74;98642.49;1774458;79;21056;-53
2021/09/20 04:29:13;;;;;;;0.20;0.20;;;;;;;9.82;80.70;98640.67;1775137;79;21098;-53
2021/09/20 04:31:39;;;;;;;0.23;0.20;;;;;;;9.83;80.68;98641.53;1776287;79;21046;-53
2021/09/20 04:34:06;;;;;;;1.02;0.15;;;;;;;9.82;80.66;98647.39;1779064;79;21286;-53
2021/09/20 04:36:32;;;;;;;0.20;0.10;;;;;;;9.80;80.71;98651.13;1775980;79;21318;-53
2021/09/20 04:38:58;;;;;;;0.20;0.10;;;;;;;9.80;80.88;98660.53;1774749;79;21311;-53
2021/09/20 04:41:26;;;;;;;2.15;0.17;;;;;;;9.81;80.90;98656.41;1773461;79;22615;-53
2021/09/20 04:43:53;;;;;;;1.12;0.20;;;;;;;9.85;80.97;98666.02;1778468;79;21080;-52
2021/09/20 04:46:20;;;;;;;0.60;0.20;;;;;;;9.87;80.85;98653.33;1774818;79;21056;-53
2021/09/20 04:48:47;;;;;;;0.20;0.20;;;;;;;9.85;80.84;98667.84;1776722;79;21033;-53
2021/09/20 04:51:14;;;;;;;0.20;0.20;;;;;;;9.84;80.75;98654.02;1779931;79;21435;-53
2021/09/20 04:53:41;;;;;;;0.17;0.17;;;;;;;9.81;80.70;98661.78;1778402;79;22178;-53
2021/09/20 04:56:07;;;;;;;0.30;0.17;;;;;;;9.79;80.79;98663.70;1775768;78;21043;-53
2021/09/20 04:58:34;;;;;;;0.30;0.10;;;;;;;9.79;80.83;98665.03;1780876;79;22255;-53
2021/09/20 05:01:00;;;;;;;0.33;0.20;;;;;;;9.78;80.80;98667.34;1778291;79;21523;-53
2021/09/20 05:03:27;;;;;;;0.20;0.20;;;;;;;9.79;80.91;98671.76;1778805;79;21010;-54
2021/09/20 05:05:53;;;;;;;0.85;0.20;;;;;;;9.81;80.89;98668.50;1771609;78;21036;-53
2021/09/20 05:08:19;;;;;;;2.27;0.20;;;;;;;9.82;80.89;98666.68;1775388;80;21037;-53
2021/09/20 05:10:47;;;;;;;0.10;0.10;;;;;;;9.84;80.96;98672.35;1753647;78;21103;-53
2021/09/20 05:13:14;;;;;;;0.93;0.20;;;;;;;9.88;80.96;98670.32;1776527;79;21111;-54
2021/09/20 05:15:40;;;;;;;0.20;0.20;;;;;;;9.90;81.00;98671.58;1776367;79;21065;-53
2021/09/20 05:18:08;;;;;;;0.17;0.17;;;;;;;9.92;80.98;98675.04;1778552;79;21112;-53
2021/09/20 05:20:35;;;;;;;0.90;0.57;;;;;;;9.92;80.94;98673.70;1776269;79;20968;-54
2021/09/20 05:23:03;;;;;;;0.35;0.23;;;;;;;9.91;80.91;98675.99;1779530;79;21826;-53
2021/09/20 05:25:29;;;;;;;0.50;0.20;;;;;;;9.88;80.93;98680.59;1792195;78;22623;-53
2021/09/20 05:27:55;;;;;;;1.95;0.20;;;;;;;9.90;81.01;98681.84;1768301;79;21044;-54
2021/09/20 05:30:22;;;;;;;2.65;0.20;;;;;;;9.91;81.08;98680.89;1766840;79;21156;-53
2021/09/20 05:32:49;;;;;;;0.40;0.20;;;;;;;9.94;81.09;98685.22;1747242;80;21040;-53
2021/09/20 05:35:15;;;;;;;0.20;0.20;;;;;;;9.94;81.17;98686.09;1742900;80;21081;-53
2021/09/20 05:37:42;;;;;;;0.20;0.20;;;;;;;9.96;81.19;98692.20;1771148;78;21075;-53
2021/09/20 05:40:09;;;;;;;0.37;0.20;;;;;;;9.99;81.16;98695.20;1745354;80;21356;-54
2021/09/20 05:42:36;;;;;;;0.30;0.30;;;;;;;9.99;81.11;98692.51;1774492;78;21106;-53
2021/09/20 05:45:04;;;;;;;1.98;0.40;;;;;;;9.98;81.06;98697.02;1750934;80;20940;-53
2021/09/20 05:47:31;;;;;;;0.78;0.37;;;;;;;9.99;81.10;98699.23;1753101;80;20988;-53
2021/09/20 05:49:59;;;;;;;0.20;0.20;;;;;;;10.00;81.18;98704.99;1746420;80;20871;-54
2021/09/20 05:52:25;;;;;;;0.35;0.23;;;;;;;9.99;81.19;98706.81;1751574;80;20907;-53
2021/09/20 05:54:51;;;;;;;0.20;0.20;;;;;;;9.96;81.20;98707.47;1748342;80;21862;-54
2021/09/20 05:57:18;;;;;;;1.07;0.20;;;;;;;9.95;81.41;98713.84;1754391;80;20908;-53
2021/09/20 05:59:46;;;;;;;1.10;0.20;;;;;;;9.97;81.48;98722.17;1746221;80;20917;-54
2021/09/20 06:02:12;;;;;;;0.40;0.30;;;;;;;9.99;81.45;98718.05;1745825;79;20924;-54
2021/09/20 06:04:38;;;;;;;0.30;0.25;;;;;;;9.99;81.56;98724.29;1743271;80;20949;-54
2021/09/20 06:07:05;;;;;;;0.28;0.28;;;;;;;10.04;81.58;98726.20;1755196;79;21068;-53
2021/09/20 06:09:35;;;;;;;1.67;0.20;;;;;;;10.06;81.46;98727.45;1752252;80;21030;-54
2021/09/20 06:12:03;;;;;;;0.30;0.20;;;;;;;10.07;81.49;98731.88;1742226;80;20964;-53
2021/09/20 06:14:30;;;;;;;4.22;0.30;;;;;;;10.08;81.50;98732.27;1770388;79;21028;-54
2021/09/20 06:16:58;;;;;;;0.28;0.20;;;;;;;10.08;81.49;98729.09;1754532;80;21021;-52
2021/09/20 06:19:24;;;;;;;0.75;0.25;;;;;;;10.07;81.52;98739.47;1744560;79;21064;-54
2021/09/20 06:21:52;;;;;;;0.28;0.20;;;;;;;10.08;81.56;98742.54;1741458;80;21043;-54
2021/09/20 06:24:19;;;;;;;4.70;0.30;;;;;;;10.11;81.57;98746.39;1738633;79;21064;-53
2021/09/20 06:26:45;;;;;;;0.30;0.20;;;;;;;10.13;81.55;98748.96;1745827;80;21111;-53
2021/09/20 06:29:12;;;;;;;0.40;0.30;;;;;;;10.16;81.54;98749.65;1741695;80;21059;-53
2021/09/20 06:31:40;;;;;;;0.50;0.30;;;;;;;10.14;81.49;98748.00;1755018;79;21500;-53
2021/09/20 06:34:06;;;;;;;0.55;0.40;;;;;;;10.15;81.54;98751.08;1769341;79;21057;-53
2021/09/20 06:36:34;;;;;;;0.68;0.40;;;;;;;10.14;81.59;98748.00;1764688;79;21421;-53
2021/09/20 06:39:01;;;;;;;0.30;0.30;;;;;;;10.13;81.64;98749.83;1769367;79;21452;-53
2021/09/20 06:41:27;;;;;;;1.35;0.28;;;;;;;10.14;81.67;98759.63;1765845;79;21505;-53
2021/09/20 06:43:53;;;;;;;0.68;0.20;;;;;;;10.15;81.73;98753.77;1766745;79;21628;-54
2021/09/20 06:46:20;;;;;;;0.47;0.30;;;;;;;10.19;81.77;98758.05;1765485;79;21037;-54
2021/09/20 06:48:47;;;;;;;0.30;0.20;;;;;;;10.21;81.80;98761.48;1770219;79;21039;-54
2021/09/20 06:51:13;;;;;;;0.47;0.30;;;;;;;10.22;81.76;98761.39;1767342;79;21021;-54
2021/09/20 06:53:39;;;;;;;0.65;0.30;;;;;;;10.23;81.82;98768.98;1772287;78;21040;-54
2021/09/20 06:56:06;;;;;;;0.95;0.28;;;;;;;10.26;81.83;98775.53;1793999;78;21128;-53
2021/09/20 06:58:32;;;;;;;0.42;0.30;;;;;;;10.29;81.80;98780.73;1770210;78;21061;-54
2021/09/20 07:01:00;;;;;;;0.85;0.30;;;;;;;10.31;81.75;98780.13;1777685;78;21067;-53
2021/09/20 07:03:27;;;;;;;0.37;0.30;;;;;;;10.29;81.75;98780.73;1764744;80;21041;-54
2021/09/20 07:05:54;;;;;;;0.40;0.20;;;;;;;10.29;81.74;98779.38;1762735;80;21160;-53
2021/09/20 07:08:20;;;;;;;1.20;0.40;;;;;;;10.25;81.72;98787.23;1759346;79;22784;-53
2021/09/20 07:10:47;;;;;;;0.82;0.20;;;;;;;10.21;81.81;98787.89;1761771;79;22281;-53
2021/09/20 07:13:13;;;;;;;0.28;0.20;;;;;;;10.22;81.89;98790.98;1775382;78;21124;-53
2021/09/20 07:15:40;;;;;;;0.20;0.20;;;;;;;10.23;82.00;98795.88;1770426;79;21434;-54
2021/09/20 07:18:06;;;;;;;0.40;0.20;;;;;;;10.24;82.04;98792.23;1769489;79;21044;-53
2021/09/20 07:20:33;;;;;;;0.30;0.20;;;;;;;10.29;82.09;98799.55;1765994;79;21116;-54
2021/09/20 07:22:59;;;;;;;0.33;0.23;;;;;;;10.33;82.06;98806.94;1770616;79;21496;-52
2021/09/20 07:25:25;;;;;;;0.30;0.20;;;;;;;10.36;82.06;98805.41;1766801;79;21032;-53
2021/09/20 07:27:52;;;;;;;0.35;0.30;;;;;;;10.38;82.02;98810.22;1766434;79;21060;-53
2021/09/20 07:30:18;;;;;;;0.85;0.40;;;;;;;10.40;82.00;98809.63;1770179;79;21088;-53
2021/09/20 07:32:46;;;;;;;0.53;0.20;;;;;;;10.40;81.88;98805.59;1770457;79;21749;-53
2021/09/20 07:35:15;;;;;;;0.35;0.25;;;;;;;10.41;81.88;98810.01;1768674;79;21065;-54
2021/09/20 07:38:54;;;;;;;0.40;0.23;;;;;;;10.48;81.95;98811.35;1777191;78;22622;-54
2021/09/20 07:41:20;;;;;;;0.35;0.20;;;;;;;10.46;82.01;98811.44;1735237;80;21109;-53
2021/09/20 07:43:47;;;;;;;0.55;0.25;;;;;;;10.49;82.08;98815.30;1738826;80;21083;-54
2021/09/20 07:46:14;;;;;;;0.40;0.28;;;;;;;10.49;82.00;98820.67;1741954;80;22630;-53
2021/09/20 07:48:41;;;;;;;0.20;0.20;;;;;;;10.50;81.93;98816.16;1733316;80;21012;-53
2021/09/20 07:51:07;;;;;;;0.50;0.20;;;;;;;10.48;81.91;98821.63;1740256;80;21479;-53
2021/09/20 07:53:34;;;;;;;0.93;0.30;;;;;;;10.48;81.93;98824.33;1740395;80;20962;-54
2021/09/20 07:56:00;;;;;;;0.25;0.20;;;;;;;10.49;82.04;98817.98;1737454;80;21092;-54
2021/09/20 07:58:26;;;;;;;0.20;0.20;;;;;;;10.49;82.03;98816.64;1738897;80;21032;-54
2021/09/20 08:00:53;;;;;;;1.17;0.30;;;;;;;10.55;82.13;98820.77;1742818;80;21042;-53
2021/09/20 08:03:19;;;;;;;0.33;0.30;;;;;;;10.61;82.11;98819.05;1741441;80;21056;-54
2021/09/20 08:05:45;;;;;;;0.30;0.20;;;;;;;10.66;82.02;98821.44;1701904;81;21119;-53
2021/09/20 08:08:12;;;;;;;0.37;0.30;;;;;;;10.71;82.02;98819.34;1686728;82;21502;-53
2021/09/20 08:10:38;;;;;;;0.47;0.30;;;;;;;10.74;81.96;98821.34;1711397;82;21465;-53
2021/09/20 08:13:07;;;;;;;0.30;0.30;;;;;;;10.79;82.02;98822.41;1698260;82;21534;-54
2021/09/20 08:15:36;;;;;;;0.57;0.37;;;;;;;10.85;81.86;98816.62;1699861;82;21002;-53
2021/09/20 08:18:04;;;;;;;0.53;0.30;;;;;;;10.91;81.75;98821.13;1699569;82;21621;-53
2021/09/20 08:20:32;;;;;;;0.47;0.30;;;;;;;10.97;81.63;98827.97;1702394;82;21686;-53
2021/09/20 08:23:00;;;;;;;0.20;0.20;;;;;;;11.04;81.66;98821.70;1704256;81;21470;-53
2021/09/20 08:25:27;;;;;;;0.60;0.40;;;;;;;11.10;81.50;98836.10;1700186;81;21789;-53
2021/09/20 08:27:53;;;;;;;0.20;0.20;;;;;;;11.14;81.35;98829.56;1701270;81;21357;-53
2021/09/20 08:30:21;;;;;;;1.65;0.40;;;;;;;11.17;81.30;98831.56;1705457;81;21079;-53
2021/09/20 08:32:50;;;;;;;0.78;0.40;;;;;;;11.22;81.17;98830.80;1684394;81;22603;-53
2021/09/20 08:35:17;;;;;;;2.52;0.35;;;;;;;11.26;81.02;98831.44;1679921;83;22245;-53
2021/09/20 08:37:43;;;;;;;0.20;0.20;;;;;;;11.27;80.84;98827.30;1684978;83;21061;-53
2021/09/20 08:40:11;;;;;;;0.45;0.25;;;;;;;11.30;80.74;98825.77;1684443;83;21450;-53
2021/09/20 08:42:40;;;;;;;0.40;0.20;;;;;;;11.32;80.67;98822.47;1664319;84;21350;-53
2021/09/20 08:45:08;;;;;;;0.20;0.20;;;;;;;11.34;80.65;98833.14;1666457;84;22710;-53
2021/09/20 08:47:40;;;;;;;0.20;0.20;;;;;;;11.36;80.58;98835.27;1661912;84;21126;-53
2021/09/20 08:50:09;;;;;;;0.60;0.30;;;;;;;11.39;80.56;98831.03;1663962;84;20991;-53
2021/09/20 08:52:35;;;;;;;0.30;0.20;;;;;;;11.47;80.61;98838.61;1681775;83;22220;-53
2021/09/20 08:55:01;;;;;;;0.30;0.30;;;;;;;11.52;80.37;98834.63;1656687;84;21153;-52
2021/09/20 08:57:28;;;;;;;0.80;0.30;;;;;;;11.57;80.14;98842.42;1666112;84;21126;-53
2021/09/20 08:59:56;;;;;;;0.20;0.20;;;;;;;11.62;79.94;98847.88;1681684;83;21089;-53
2021/09/20 09:02:22;;;;;;;2.65;0.30;;;;;;;11.70;79.79;98841.49;1662059;84;21434;-53
2021/09/20 09:04:48;;;;;;;0.15;0.15;;;;;;;11.72;79.55;98842.27;1671321;83;21133;-53
2021/09/20 09:07:18;;;;;;;1.40;0.20;;;;;;;11.76;79.36;98852.37;1675580;83;22295;-52
2021/09/20 09:09:50;;;;;;;0.75;0.15;;;;;;;11.79;79.19;98859.39;1677749;83;21117;-53
2021/09/20 09:12:28;;;;;;;1.25;0.30;;;;;;;11.82;78.89;98860.06;1683664;83;20930;-53
2021/09/20 09:15:03;;;;;;;3.42;0.20;;;;;;;11.85;78.69;98869.77;1678868;83;20943;-52
2021/09/20 09:17:37;;;;;;;0.20;0.20;;;;;;;11.86;78.51;98858.88;1676884;83;21017;-53
2021/09/20 09:20:16;;;;;;;0.20;0.20;;;;;;;11.90;78.37;98863.59;1682829;83;21073;-53
2021/09/20 09:22:56;;;;;;;0.20;0.20;;;;;;;11.94;78.19;98872.70;1676548;83;20970;-54
2021/09/20 09:25:42;;;;;;;0.30;0.20;;;;;;;12.00;78.11;98870.06;1681807;83;21029;-53
2021/09/20 09:28:26;;;;;;;0.10;0.10;;;;;;;12.08;77.99;98872.62;1682375;83;20914;-53
2021/09/20 09:30:55;;;;;;;;;;;;;;;12.22;78.04;98865.44;1684153;83;21139;-53
2021/09/20 09:33:38;;;;;;;0.20;0.20;;;;;;;12.31;77.59;98868.37;1684776;83;20125;-53
2021/09/20 09:36:06;;;;;;;0.35;0.10;;;;;;;12.35;77.12;98869.00;1682702;83;20982;-53
2021/09/20 09:38:34;;;;;;;0.10;0.10;;;;;;;12.40;76.90;98870.42;1646984;86;21067;-53
2021/09/20 09:41:03;;;;;;;0.20;0.20;;;;;;;12.46;76.57;98878.09;1673033;83;21029;-53
2021/09/20 09:43:35;;;;;;;0.20;0.20;;;;;;;12.46;76.57;98878.09;1673507;83;21081;-53
2021/09/20 09:46:21;;;;;;;0.10;0.10;;;;;;;12.44;76.44;98880.50;1673575;83;21077;-53
2021/09/20 09:48:49;;;;;;;0.20;0.10;;;;;;;12.47;76.37;98880.30;1675136;83;21139;-54
2021/09/20 09:51:17;;;;;;;0.15;0.10;;;;;;;12.51;76.12;98882.66;1645830;86;21145;-53
2021/09/20 09:53:46;;;;;;;0.28;0.17;;;;;;;12.51;76.12;98882.66;1678294;83;21129;-54
2021/09/20 09:56:18;;;;;;;0.20;0.10;;;;;;;12.55;76.27;98896.83;1680825;83;20915;-54
2021/09/20 09:58:59;;;;;;;0.88;0.20;;;;;;;12.59;76.22;98886.69;1679413;83;20978;-54
2021/09/20 10:01:34;;;;;;;0.23;0.10;;;;;;;12.63;76.00;98893.59;1681678;83;21112;-53
2021/09/20 10:04:22;;;;;;;0.30;0.20;;;;;;;12.63;75.87;98885.48;1687908;83;20914;-53
2021/09/20 10:06:55;;;;;;;0.37;0.10;;;;;;;12.66;75.89;98888.85;1684382;83;20894;-54
2021/09/20 10:09:24;;;;;;;0.30;0.20;;;;;;;12.69;75.52;98892.66;1655726;84;20972;-53
2021/09/20 10:11:54;;;;;;;0.30;0.20;;;;;;;12.69;75.52;98892.66;1683931;83;20965;-53
2021/09/20 10:14:23;;;;;;;0.50;0.20;;;;;;;12.69;75.60;98894.02;1670347;84;20936;-54
2021/09/20 10:16:53;;;;;;;6.92;0.28;;;;;;;12.68;75.54;98903.56;1667309;84;20928;-54
2021/09/20 10:19:21;;;;;;;0.23;0.17;;;;;;;12.68;75.58;98904.91;1670962;84;21280;-54
2021/09/20 10:21:49;;;;;;;0.30;0.13;;;;;;;12.69;75.53;98907.52;1664669;84;21402;-54
2021/09/20 10:24:17;;;;;;;2.92;0.20;;;;;;;12.63;75.46;98906.61;1665878;84;21300;-54
2021/09/20 10:26:45;;;;;;;0.20;0.10;;;;;;;12.63;75.46;98906.61;1669570;84;23053;-54
2021/09/20 10:29:15;;;;;;;0.20;0.20;;;;;;;12.64;75.30;98916.92;1660255;84;21320;-54
2021/09/20 10:31:43;;;;;;;0.10;0.10;;;;;;;12.69;75.28;98912.91;1667766;84;21022;-54
2021/09/20 10:34:24;;;;;;;0.20;0.10;;;;;;;12.69;75.28;98912.91;1668405;84;20943;-54
2021/09/20 10:37:09;;;;;;;0.10;0.10;;;;;;;12.72;74.93;98911.84;1680242;83;20942;-54
2021/09/20 10:40:04;;;;;;;0.10;0.10;;;;;;;12.73;74.65;98913.58;1672592;83;21571;-54
2021/09/20 10:42:46;;;;;;;0.72;0.10;;;;;;;12.75;74.43;98912.99;1671395;84;21125;-54
2021/09/20 10:45:39;;;;;;;0.10;0.10;;;;;;;12.76;73.69;98910.16;1673244;84;20906;-54
2021/09/20 10:48:19;;;;;;;0.10;0.10;;;;;;;12.74;73.35;98916.17;1669758;83;21009;-54
2021/09/20 10:50:52;;;;;;;0.20;0.10;;;;;;;12.69;73.34;98914.27;1669943;84;21061;-53
2021/09/20 10:53:33;;;;;;;0.13;0.10;;;;;;;12.72;73.26;98917.25;1665312;83;21593;-54
2021/09/20 10:56:11;;;;;;;0.55;0.10;;;;;;;12.71;73.22;98919.56;1706011;82;21617;-54
2021/09/20 10:58:42;;;;;;;0.10;0.10;;;;;;;12.69;73.11;98929.12;1668880;84;21504;-54
2021/09/20 11:01:17;;;;;;;0.00;0.00;;;;;;;12.65;72.76;98919.52;1714552;82;20990;-53
2021/09/20 11:03:58;;;;;;;0.10;0.10;;;;;;;12.69;72.48;98931.81;1705332;82;21082;-54
2021/09/20 11:06:31;;;;;;;0.10;0.10;;;;;;;12.69;72.48;98931.81;1669202;84;21158;-54
2021/09/20 11:09:17;;;;;;;0.47;0.13;;;;;;;12.74;72.67;98932.38;1666485;83;21867;-53
2021/09/20 11:11:44;;;;;;;0.35;0.10;;;;;;;12.80;72.51;98938.69;1671359;83;21109;-53
2021/09/20 11:14:16;;;;;;;0.10;0.10;;;;;;;12.85;72.11;98935.17;1706289;82;21097;-54
2021/09/20 11:16:59;;;;;;;0.10;0.10;;;;;;;12.85;71.76;98944.62;1706758;82;21101;-53
2021/09/20 11:19:31;;;;;;;0.10;0.10;;;;;;;12.92;71.91;98933.41;1700240;82;21122;-54
2021/09/20 11:22:12;;;;;;;0.20;0.10;;;;;;;12.92;71.91;98933.41;1702422;82;21078;-54
2021/09/20 11:24:54;;;;;;;0.20;0.10;;;;;;;13.00;71.33;98929.19;1704281;82;21091;-54
2021/09/20 11:27:31;;;;;;;0.10;0.10;;;;;;;13.06;71.31;98931.45;1700608;82;21046;-53
2021/09/20 11:30:21;;;;;;;0.17;0.10;;;;;;;13.13;71.07;98932.77;1704042;82;21030;-53
2021/09/20 11:32:56;;;;;;;0.10;0.10;;;;;;;13.16;70.88;98940.66;1667382;84;21932;-54
2021/09/20 11:35:25;;;;;;;0.10;0.10;;;;;;;13.17;70.62;98941.53;1670159;84;21349;-54
2021/09/20 11:37:52;;;;;;;0.10;0.10;;;;;;;13.14;70.54;98935.85;1673139;84;21085;-54
2021/09/20 11:40:21;;;;;;;0.10;0.10;;;;;;;13.12;70.48;98935.54;1706324;82;21084;-53
2021/09/20 11:42:53;;;;;;;0.08;0.00;;;;;;;13.08;70.59;98936.75;1702590;82;21149;-54
2021/09/20 11:45:32;;;;;;;0.20;0.10;;;;;;;13.05;70.30;98945.06;1701194;82;21113;-54